Time;durP1;ratioP1;P1;durP2;ratioP2;P2;SDS_P1;SDS_P2;PMS_P1;PMS_P2;Temp;Humidity;BMP_temperature;BMP_pressure;BME280_temperature;BME280_humidity;BME280_pressure;Samples;Min_cycle;Max_cycle;Signal;HPM_P1;HPM_P2
2021/10/19 00:00:03;;;;;;;2.65;1.77;;;22.40;53.40;;;;;;4978994;28;20354;-50
2021/10/19 00:02:29;;;;;;;1.95;1.40;;;22.40;53.50;;;;;;4982904;28;20121;-57
2021/10/19 00:04:56;;;;;;;1.95;1.40;;;22.40;53.50;;;;;;4982192;28;20031;-54
2021/10/19 00:07:21;;;;;;;2.35;1.40;;;22.30;53.40;;;;;;4981547;28;20034;-59
2021/10/19 00:09:47;;;;;;;2.88;1.58;;;22.30;53.50;;;;;;4983407;28;20037;-58
2021/10/19 00:12:13;;;;;;;2.47;1.50;;;22.30;53.50;;;;;;4979463;28;20579;-60
2021/10/19 00:14:38;;;;;;;2.00;1.40;;;22.30;53.50;;;;;;4983872;28;20062;-55
2021/10/19 00:17:04;;;;;;;1.85;1.30;;;22.30;53.50;;;;;;4977568;28;20077;-59
2021/10/19 00:19:30;;;;;;;2.22;1.40;;;22.30;53.50;;;;;;4981825;28;20431;-60
2021/10/19 00:21:55;;;;;;;2.78;1.50;;;22.30;53.50;;;;;;4976540;28;20371;-57
2021/10/19 00:24:21;;;;;;;2.10;1.50;;;22.30;53.60;;;;;;4983916;28;20117;-54
2021/10/19 00:26:46;;;;;;;2.28;1.50;;;22.20;53.60;;;;;;4982976;28;20046;-59
2021/10/19 00:29:12;;;;;;;3.35;1.40;;;22.20;53.60;;;;;;4984363;28;20056;-56
2021/10/19 00:31:37;;;;;;;2.03;1.40;;;22.20;53.60;;;;;;4988640;28;20058;-58
2021/10/19 00:34:03;;;;;;;1.92;1.40;;;22.20;53.60;;;;;;4988305;28;20049;-59
2021/10/19 00:36:29;;;;;;;1.70;1.33;;;22.10;53.60;;;;;;4979117;28;20114;-57
2021/10/19 00:38:54;;;;;;;1.85;1.50;;;22.20;53.70;;;;;;4985537;28;20035;-60
2021/10/19 00:41:22;;;;;;;2.00;1.35;;;22.20;53.70;;;;;;4979132;28;20624;-54
2021/10/19 00:43:49;;;;;;;2.45;1.45;;;22.20;53.70;;;;;;4989529;28;20049;-58
2021/10/19 00:46:15;;;;;;;2.28;1.60;;;22.20;53.70;;;;;;4988931;28;20027;-60
2021/10/19 00:48:42;;;;;;;2.03;1.48;;;22.10;53.70;;;;;;4987029;28;20125;-57
2021/10/19 00:51:11;;;;;;;2.10;1.50;;;22.10;53.70;;;;;;4982504;28;20038;-59
2021/10/19 00:53:37;;;;;;;1.80;1.40;;;22.10;53.70;;;;;;4985693;28;20042;-51
2021/10/19 00:56:06;;;;;;;1.90;1.30;;;22.10;53.70;;;;;;4986807;28;20050;-58
2021/10/19 00:58:31;;;;;;;2.08;1.50;;;22.10;53.70;;;;;;4986663;28;20054;-57
2021/10/19 01:00:57;;;;;;;2.35;1.52;;;22.00;53.70;;;;;;4986309;28;20065;-58
2021/10/19 01:03:23;;;;;;;2.53;1.48;;;22.00;53.70;;;;;;4984622;28;20026;-60
2021/10/19 01:05:48;;;;;;;2.10;1.30;;;22.00;53.70;;;;;;4986249;28;20027;-53
2021/10/19 01:08:14;;;;;;;2.10;1.45;;;22.00;53.80;;;;;;4984747;28;20049;-58
2021/10/19 01:10:40;;;;;;;2.50;1.58;;;22.10;53.80;;;;;;4987558;28;20041;-52
2021/10/19 01:13:06;;;;;;;1.98;1.35;;;22.00;53.80;;;;;;4985961;28;20682;-58
2021/10/19 01:15:33;;;;;;;2.20;1.55;;;22.00;53.80;;;;;;4987171;28;20687;-60
2021/10/19 01:17:59;;;;;;;1.80;1.35;;;22.00;53.80;;;;;;4985103;28;20494;-51
2021/10/19 01:20:27;;;;;;;2.17;1.45;;;22.00;53.80;;;;;;4990439;28;20057;-62
2021/10/19 01:22:54;;;;;;;2.08;1.48;;;21.90;53.80;;;;;;4985958;28;20015;-60
2021/10/19 01:25:22;;;;;;;2.08;1.30;;;22.00;53.90;;;;;;4995331;28;20061;-60
2021/10/19 01:27:50;;;;;;;2.08;1.50;;;22.00;53.90;;;;;;4984354;28;20049;-59
2021/10/19 01:30:17;;;;;;;1.75;1.50;;;21.90;53.90;;;;;;4986783;28;20109;-54
2021/10/19 01:32:43;;;;;;;1.70;1.20;;;21.90;53.90;;;;;;4986032;28;20769;-52
2021/10/19 01:35:10;;;;;;;2.03;1.30;;;21.90;53.90;;;;;;4985145;28;22275;-53
2021/10/19 01:37:36;;;;;;;1.90;1.30;;;21.90;54.00;;;;;;4984305;28;20134;-59
2021/10/19 01:40:06;;;;;;;2.30;1.40;;;21.90;54.00;;;;;;4983336;28;20743;-57
2021/10/19 01:42:35;;;;;;;2.10;1.30;;;21.90;54.00;;;;;;4988809;28;20026;-57
2021/10/19 01:45:01;;;;;;;;;;;21.90;54.00;;;;;;4987448;28;20105;-58
2021/10/19 01:47:28;;;;;;;1.70;1.40;;;21.90;54.00;;;;;;4982914;28;20001;-57
2021/10/19 01:49:53;;;;;;;1.70;1.33;;;21.90;54.10;;;;;;4987609;28;20096;-53
2021/10/19 01:52:19;;;;;;;2.05;1.25;;;21.80;54.00;;;;;;4975291;28;20410;-59
2021/10/19 01:54:45;;;;;;;2.05;1.38;;;21.80;54.00;;;;;;4984651;28;20415;-55
2021/10/19 01:57:10;;;;;;;1.73;1.30;;;21.80;54.10;;;;;;4997252;28;20390;-54
2021/10/19 01:59:36;;;;;;;1.77;1.23;;;21.80;54.10;;;;;;4985363;28;20026;-61
2021/10/19 02:02:02;;;;;;;2.72;1.30;;;21.80;54.10;;;;;;4985617;28;20040;-58
2021/10/19 02:04:27;;;;;;;1.98;1.35;;;21.80;54.10;;;;;;4988667;28;20082;-55
2021/10/19 02:06:53;;;;;;;1.95;1.40;;;21.80;54.20;;;;;;4988158;28;20042;-55
2021/10/19 02:09:18;;;;;;;2.00;1.40;;;21.80;54.20;;;;;;4985169;28;20026;-61
2021/10/19 02:11:44;;;;;;;1.73;1.40;;;21.70;54.10;;;;;;4987687;28;20109;-54
2021/10/19 02:14:09;;;;;;;2.35;1.45;;;21.70;54.10;;;;;;4985771;28;20035;-59
2021/10/19 02:16:35;;;;;;;2.65;1.42;;;21.70;54.10;;;;;;4982104;28;20343;-56
2021/10/19 02:19:01;;;;;;;1.70;1.35;;;21.70;54.20;;;;;;4981451;28;20629;-60
2021/10/19 02:21:26;;;;;;;1.95;1.40;;;21.70;54.20;;;;;;4983447;28;20045;-58
2021/10/19 02:23:52;;;;;;;3.13;1.50;;;21.70;54.20;;;;;;4985522;28;20109;-52
2021/10/19 02:26:17;;;;;;;1.80;1.30;;;21.70;54.20;;;;;;4985391;28;20486;-61
2021/10/19 02:28:43;;;;;;;1.67;1.20;;;21.70;54.20;;;;;;4987568;28;20085;-55
2021/10/19 02:31:10;;;;;;;1.63;1.25;;;21.70;54.30;;;;;;4983088;28;20113;-55
2021/10/19 02:33:36;;;;;;;1.70;1.23;;;21.70;54.30;;;;;;4981851;28;20022;-61
2021/10/19 02:36:02;;;;;;;1.77;1.30;;;21.70;54.30;;;;;;4986352;28;20077;-55
2021/10/19 02:38:28;;;;;;;1.92;1.30;;;21.60;54.20;;;;;;4984031;28;20600;-56
2021/10/19 02:40:53;;;;;;;2.03;1.30;;;21.70;54.30;;;;;;4983535;28;21042;-59
2021/10/19 02:43:19;;;;;;;1.58;1.20;;;21.60;54.30;;;;;;4986976;28;20038;-51
2021/10/19 02:45:45;;;;;;;1.65;1.13;;;21.60;54.30;;;;;;4984061;28;20728;-53
2021/10/19 02:48:10;;;;;;;2.00;1.40;;;21.60;54.30;;;;;;4982831;28;20026;-58
2021/10/19 02:50:36;;;;;;;1.75;1.33;;;21.60;54.30;;;;;;4981369;28;20034;-59
2021/10/19 02:53:02;;;;;;;1.80;1.30;;;21.60;54.30;;;;;;4979476;28;20426;-53
2021/10/19 02:55:28;;;;;;;1.70;1.30;;;21.60;54.40;;;;;;4984809;28;20116;-59
2021/10/19 02:57:53;;;;;;;1.77;1.45;;;21.60;54.40;;;;;;4985653;28;20144;-58
2021/10/19 03:00:19;;;;;;;1.40;1.20;;;21.60;54.40;;;;;;4984599;28;20037;-58
2021/10/19 03:02:44;;;;;;;1.90;1.30;;;21.60;54.40;;;;;;4986610;28;20073;-55
2021/10/19 03:05:11;;;;;;;2.78;1.35;;;21.60;54.40;;;;;;4986213;28;20104;-57
2021/10/19 03:07:36;;;;;;;1.67;1.10;;;21.50;54.40;;;;;;4984509;28;20105;-57
2021/10/19 03:10:03;;;;;;;2.20;1.40;;;21.50;54.40;;;;;;4985019;28;20139;-58
2021/10/19 03:12:29;;;;;;;1.98;1.40;;;21.50;54.40;;;;;;4983430;28;20077;-58
2021/10/19 03:14:55;;;;;;;1.60;1.20;;;21.50;54.40;;;;;;4986265;28;20026;-61
2021/10/19 03:17:21;;;;;;;1.92;1.15;;;21.50;54.40;;;;;;4971862;28;20092;-50
2021/10/19 03:19:46;;;;;;;2.03;1.30;;;21.50;54.40;;;;;;4983616;28;20401;-52
2021/10/19 03:22:12;;;;;;;1.63;1.30;;;21.50;54.50;;;;;;4976754;28;20026;-59
2021/10/19 03:24:38;;;;;;;1.40;1.20;;;21.50;54.50;;;;;;4988246;28;20478;-49
2021/10/19 03:27:04;;;;;;;2.33;1.23;;;21.50;54.50;;;;;;4984580;28;20570;-53
2021/10/19 03:29:29;;;;;;;1.55;1.25;;;21.50;54.50;;;;;;4988349;28;20612;-49
2021/10/19 03:31:55;;;;;;;1.45;1.20;;;21.50;55.10;;;;;;4978279;28;20066;-55
2021/10/19 03:34:21;;;;;;;1.25;1.15;;;21.50;54.60;;;;;;4987700;28;20148;-55
2021/10/19 03:36:47;;;;;;;2.85;1.20;;;21.50;54.60;;;;;;4981598;28;20142;-58
2021/10/19 03:39:12;;;;;;;1.60;1.25;;;21.40;54.50;;;;;;4975591;28;20037;-52
2021/10/19 03:41:38;;;;;;;1.88;1.30;;;21.50;54.60;;;;;;4978748;28;20058;-54
2021/10/19 03:44:04;;;;;;;1.48;1.10;;;21.40;54.50;;;;;;4983887;28;20031;-57
2021/10/19 03:46:29;;;;;;;1.70;1.20;;;21.40;54.50;;;;;;4984993;28;20042;-50
2021/10/19 03:48:55;;;;;;;1.50;1.20;;;21.40;54.50;;;;;;4980836;28;20034;-54
2021/10/19 03:51:21;;;;;;;1.67;1.25;;;21.40;54.50;;;;;;4979753;28;20038;-57
2021/10/19 03:53:46;;;;;;;1.33;1.13;;;21.40;54.50;;;;;;4978124;28;20111;-54
2021/10/19 03:56:12;;;;;;;1.52;1.20;;;21.40;54.60;;;;;;4985714;28;20044;-57
2021/10/19 03:58:37;;;;;;;1.30;1.20;;;21.40;54.60;;;;;;4981185;28;20339;-59
2021/10/19 04:01:03;;;;;;;1.75;1.35;;;21.40;54.60;;;;;;4987647;28;20066;-61
2021/10/19 04:03:28;;;;;;;1.85;1.30;;;21.40;54.60;;;;;;4987798;28;20036;-56
2021/10/19 04:05:54;;;;;;;1.52;1.20;;;21.40;54.60;;;;;;4989125;28;20030;-59
2021/10/19 04:08:20;;;;;;;2.03;1.30;;;21.40;54.60;;;;;;4986934;28;20041;-57
2021/10/19 04:10:45;;;;;;;1.60;1.20;;;21.40;54.60;;;;;;4982271;28;20423;-56
2021/10/19 04:13:11;;;;;;;1.40;1.20;;;21.40;54.70;;;;;;4983926;28;23309;-56
2021/10/19 04:15:36;;;;;;;2.20;1.30;;;21.40;54.70;;;;;;4987895;28;20108;-58
2021/10/19 04:18:02;;;;;;;2.22;1.50;;;21.40;54.70;;;;;;4983318;28;20033;-55
2021/10/19 04:20:28;;;;;;;2.20;1.40;;;21.40;54.70;;;;;;4980394;28;20035;-55
2021/10/19 04:22:53;;;;;;;2.65;1.20;;;21.40;54.70;;;;;;4982392;28;20041;-57
2021/10/19 04:25:20;;;;;;;1.42;1.23;;;21.40;54.70;;;;;;4989955;28;20462;-54
2021/10/19 04:27:45;;;;;;;1.65;1.25;;;21.40;54.70;;;;;;4985562;28;20072;-59
2021/10/19 04:30:11;;;;;;;1.88;1.27;;;21.40;54.70;;;;;;4988349;28;20022;-56
2021/10/19 04:32:37;;;;;;;1.60;1.20;;;21.30;54.70;;;;;;4982748;28;20835;-61
2021/10/19 04:35:03;;;;;;;1.38;1.10;;;21.30;54.70;;;;;;4980792;28;20033;-59
2021/10/19 04:37:29;;;;;;;1.92;1.30;;;21.40;54.80;;;;;;4979056;28;20122;-55
2021/10/19 04:39:54;;;;;;;1.65;1.25;;;21.30;54.80;;;;;;4983812;28;20144;-61
2021/10/19 04:42:20;;;;;;;1.83;1.30;;;21.30;55.30;;;;;;4983534;28;20042;-56
2021/10/19 04:44:48;;;;;;;1.60;1.33;;;21.30;54.80;;;;;;4981084;28;20046;-61
2021/10/19 04:47:14;;;;;;;1.60;1.10;;;21.30;54.80;;;;;;4978053;28;20109;-56
2021/10/19 04:49:40;;;;;;;1.48;1.20;;;21.30;54.80;;;;;;4987285;28;20053;-55
2021/10/19 04:52:06;;;;;;;1.50;1.23;;;21.30;54.80;;;;;;4981772;28;20026;-56
2021/10/19 04:54:31;;;;;;;1.60;1.30;;;21.30;54.80;;;;;;4982448;28;20141;-60
2021/10/19 04:56:57;;;;;;;1.70;1.20;;;21.30;54.80;;;;;;4983191;28;20125;-52
2021/10/19 04:59:23;;;;;;;1.70;1.30;;;21.30;54.80;;;;;;4978416;28;20057;-58
2021/10/19 05:01:48;;;;;;;1.80;1.30;;;21.30;54.80;;;;;;4984891;28;20055;-59
2021/10/19 05:04:15;;;;;;;2.38;1.33;;;21.30;54.80;;;;;;4980274;28;20029;-55
2021/10/19 05:06:42;;;;;;;1.75;1.30;;;21.30;54.80;;;;;;4973399;28;20129;-59
2021/10/19 05:09:08;;;;;;;1.63;1.30;;;21.30;54.80;;;;;;4981722;28;20043;-57
2021/10/19 05:11:34;;;;;;;2.60;1.40;;;21.30;54.80;;;;;;4977494;28;20518;-58
2021/10/19 05:13:59;;;;;;;1.77;1.33;;;21.30;54.80;;;;;;4983270;28;20062;-59
2021/10/19 05:16:25;;;;;;;2.08;1.35;;;21.30;54.80;;;;;;4984649;28;20462;-57
2021/10/19 05:18:50;;;;;;;1.83;1.30;;;21.30;54.80;;;;;;4980343;28;20484;-61
2021/10/19 05:21:16;;;;;;;1.80;1.30;;;21.30;54.80;;;;;;4981390;28;20356;-52
2021/10/19 05:23:42;;;;;;;1.92;1.30;;;21.30;54.80;;;;;;4987662;28;20030;-58
2021/10/19 05:26:09;;;;;;;2.10;1.50;;;21.30;54.90;;;;;;4985587;28;20030;-61
2021/10/19 05:28:35;;;;;;;1.60;1.20;;;21.30;54.90;;;;;;4978486;28;20053;-56
2021/10/19 05:31:00;;;;;;;2.33;1.20;;;21.30;54.90;;;;;;4981030;28;20038;-59
2021/10/19 05:33:26;;;;;;;2.22;1.50;;;21.30;55.40;;;;;;4981611;28;20084;-57
2021/10/19 05:35:52;;;;;;;2.33;1.60;;;21.40;55.80;;;;;;4982606;28;20034;-54
2021/10/19 05:38:17;;;;;;;3.15;1.77;;;21.50;55.50;;;;;;4978866;28;20026;-54
2021/10/19 05:40:43;;;;;;;2.80;1.77;;;21.60;55.10;;;;;;4981196;28;20066;-53
2021/10/19 05:43:09;;;;;;;4.05;1.70;;;21.70;54.90;;;;;;4979941;28;20053;-55
2021/10/19 05:45:34;;;;;;;3.70;1.77;;;21.80;54.60;;;;;;4979935;28;20523;-58
2021/10/19 05:48:00;;;;;;;4.10;1.70;;;22.00;54.30;;;;;;4986275;28;20026;-59
2021/10/19 05:50:25;;;;;;;1.98;1.58;;;22.00;54.10;;;;;;4982806;28;20030;-53
2021/10/19 05:52:51;;;;;;;2.63;1.50;;;22.20;54.00;;;;;;4984005;28;20041;-59
2021/10/19 05:55:17;;;;;;;2.47;1.50;;;22.20;53.80;;;;;;4986921;28;20041;-61
2021/10/19 05:57:42;;;;;;;1.88;1.30;;;22.30;53.80;;;;;;4983976;28;20762;-56
2021/10/19 06:00:09;;;;;;;1.75;1.20;;;22.30;53.70;;;;;;4988486;28;20014;-57
2021/10/19 06:02:34;;;;;;;2.92;1.55;;;22.40;53.60;;;;;;4976124;28;20044;-57
2021/10/19 06:05:00;;;;;;;2.47;1.40;;;22.50;53.50;;;;;;4979307;28;21657;-58
2021/10/19 06:07:26;;;;;;;2.60;1.42;;;22.50;53.10;;;;;;4977474;28;20125;-53
2021/10/19 06:09:51;;;;;;;2.78;1.77;;;22.60;52.90;;;;;;4986213;28;20897;-51
2021/10/19 06:12:17;;;;;;;2.38;1.45;;;22.60;52.90;;;;;;4985560;28;20045;-61
2021/10/19 06:14:42;;;;;;;2.70;1.52;;;22.60;52.80;;;;;;4988688;28;20034;-55
2021/10/19 06:17:12;;;;;;;2.20;1.40;;;22.60;52.80;;;;;;4987816;28;20041;-61
2021/10/19 06:19:37;;;;;;;3.22;1.50;;;22.60;52.70;;;;;;4982897;28;20113;-56
2021/10/19 06:22:03;;;;;;;2.20;1.35;;;22.60;52.70;;;;;;4985767;28;20129;-52
2021/10/19 06:24:29;;;;;;;2.33;1.58;;;22.60;52.70;;;;;;4986645;28;20019;-56
2021/10/19 06:26:55;;;;;;;1.88;1.40;;;22.60;52.60;;;;;;4984720;28;20029;-57
2021/10/19 06:29:20;;;;;;;2.10;1.60;;;22.60;52.70;;;;;;4986329;28;20050;-60
2021/10/19 06:31:46;;;;;;;2.67;1.63;;;22.60;52.60;;;;;;4984318;28;20044;-58
2021/10/19 06:34:12;;;;;;;2.38;1.40;;;22.60;52.60;;;;;;4984740;28;20030;-61
2021/10/19 06:36:39;;;;;;;1.92;1.40;;;22.60;52.50;;;;;;4981095;28;20422;-53
2021/10/19 06:39:05;;;;;;;2.95;1.42;;;22.70;52.60;;;;;;4980848;28;20112;-61
2021/10/19 06:41:31;;;;;;;2.42;1.63;;;22.60;52.60;;;;;;4981712;28;20025;-60
2021/10/19 06:43:58;;;;;;;2.25;1.50;;;22.60;52.60;;;;;;4981356;28;20393;-52
2021/10/19 06:46:23;;;;;;;2.00;1.40;;;22.60;52.60;;;;;;4978510;28;20534;-61
2021/10/19 06:48:49;;;;;;;2.60;1.60;;;22.60;52.50;;;;;;4982633;28;20120;-55
2021/10/19 06:51:15;;;;;;;2.83;1.80;;;22.70;52.50;;;;;;4976107;28;20034;-55
2021/10/19 06:53:40;;;;;;;2.42;1.52;;;22.70;52.50;;;;;;4989224;28;20030;-61
2021/10/19 06:56:06;;;;;;;3.40;1.95;;;22.70;52.90;;;;;;4976036;28;20038;-58
2021/10/19 06:58:32;;;;;;;2.35;1.67;;;22.80;52.40;;;;;;4985179;28;20026;-57
2021/10/19 07:01:00;;;;;;;2.83;1.70;;;22.80;52.30;;;;;;4978421;28;20753;-58
2021/10/19 07:03:26;;;;;;;2.10;1.40;;;22.80;52.30;;;;;;4986548;28;20113;-61
2021/10/19 07:05:52;;;;;;;2.67;1.60;;;22.80;52.30;;;;;;4991636;28;20128;-55
2021/10/19 07:08:18;;;;;;;2.25;1.58;;;22.80;52.20;;;;;;4983551;28;20049;-61
2021/10/19 07:10:44;;;;;;;2.72;1.70;;;22.80;52.20;;;;;;4984037;28;20049;-60
2021/10/19 07:13:10;;;;;;;2.35;1.67;;;22.80;52.10;;;;;;4976456;28;20084;-57
2021/10/19 07:15:36;;;;;;;2.13;1.58;;;22.80;52.10;;;;;;4981936;28;20538;-55
2021/10/19 07:18:06;;;;;;;2.28;1.67;;;22.80;52.10;;;;;;4983072;28;20029;-56
2021/10/19 07:20:33;;;;;;;2.50;1.70;;;22.90;52.10;;;;;;4983495;28;20498;-61
2021/10/19 07:22:59;;;;;;;3.03;1.60;;;22.90;52.10;;;;;;4978844;28;20026;-58
2021/10/19 07:25:26;;;;;;;2.50;1.50;;;22.90;52.10;;;;;;4983484;28;20712;-53
2021/10/19 07:27:52;;;;;;;2.65;1.73;;;22.80;52.10;;;;;;4981551;28;20034;-54
2021/10/19 07:30:18;;;;;;;2.47;1.67;;;22.90;52.40;;;;;;4989506;28;20041;-58
2021/10/19 07:32:45;;;;;;;2.17;1.42;;;23.00;52.80;;;;;;4980010;28;20023;-57
2021/10/19 07:35:12;;;;;;;2.20;1.40;;;23.20;52.90;;;;;;4984328;28;20053;-59
2021/10/19 07:37:38;;;;;;;2.97;1.13;;;23.40;52.80;;;;;;4986759;28;20138;-58
2021/10/19 07:40:06;;;;;;;2.05;1.20;;;23.40;52.80;;;;;;4988766;28;20431;-60
2021/10/19 07:42:33;;;;;;;1.60;1.20;;;23.30;52.90;;;;;;4984677;28;20050;-55
2021/10/19 07:45:00;;;;;;;1.45;1.00;;;23.30;52.90;;;;;;4987253;28;20113;-54
2021/10/19 07:47:26;;;;;;;1.58;1.20;;;23.30;53.00;;;;;;4984707;28;20034;-61
2021/10/19 07:49:51;;;;;;;1.45;1.15;;;23.30;53.20;;;;;;4992230;28;20092;-61
2021/10/19 07:52:17;;;;;;;1.80;1.15;;;23.30;53.30;;;;;;4981973;28;20066;-58
2021/10/19 07:54:42;;;;;;;1.52;1.05;;;23.40;53.80;;;;;;4988928;28;20478;-59
2021/10/19 07:57:08;;;;;;;1.25;1.00;;;23.40;54.00;;;;;;4989263;28;20034;-54
2021/10/19 07:59:33;;;;;;;1.42;0.98;;;23.50;54.10;;;;;;4989482;28;20034;-51
2021/10/19 08:01:59;;;;;;;1.67;1.10;;;23.50;54.30;;;;;;4981710;28;20089;-58
2021/10/19 08:04:25;;;;;;;1.75;1.30;;;23.50;54.20;;;;;;4987367;28;20022;-55
2021/10/19 08:06:51;;;;;;;1.42;1.10;;;23.60;54.10;;;;;;4986133;28;20038;-61
2021/10/19 08:09:16;;;;;;;1.60;1.20;;;23.50;54.60;;;;;;4985084;28;20549;-59
2021/10/19 08:11:42;;;;;;;1.48;1.05;;;23.60;54.80;;;;;;4985074;28;20451;-58
2021/10/19 08:14:07;;;;;;;1.95;1.10;;;23.60;55.30;;;;;;4987273;28;20109;-57
2021/10/19 08:16:33;;;;;;;1.20;1.00;;;23.70;55.30;;;;;;4983767;28;20117;-59
2021/10/19 08:18:59;;;;;;;1.52;1.20;;;23.70;55.40;;;;;;4984629;28;20031;-52
2021/10/19 08:21:25;;;;;;;2.50;1.00;;;23.70;55.90;;;;;;4981765;28;20034;-58
2021/10/19 08:23:51;;;;;;;1.63;1.10;;;23.70;55.50;;;;;;4982479;28;20032;-59
2021/10/19 08:26:17;;;;;;;2.85;1.20;;;23.80;56.30;;;;;;4986996;28;20424;-61
2021/10/19 08:28:47;;;;;;;1.25;1.00;;;23.80;56.00;;;;;;4983919;28;20058;-61
2021/10/19 08:31:14;;;;;;;1.30;0.90;;;23.90;56.40;;;;;;4985005;28;20046;-61
2021/10/19 08:33:40;;;;;;;1.70;1.10;;;23.90;56.70;;;;;;4982029;28;20030;-52
2021/10/19 08:36:07;;;;;;;1.45;1.08;;;23.90;56.30;;;;;;4984458;28;20473;-58
2021/10/19 08:38:33;;;;;;;2.03;1.40;;;23.90;56.20;;;;;;4982592;28;20042;-57
2021/10/19 08:40:58;;;;;;;2.70;1.85;;;23.90;54.90;;;;;;4987036;28;20141;-61
2021/10/19 08:43:24;;;;;;;2.40;1.70;;;23.80;53.20;;;;;;4989774;28;20042;-61
2021/10/19 08:45:51;;;;;;;2.33;1.90;;;23.90;52.70;;;;;;4983436;28;20046;-58
2021/10/19 08:48:17;;;;;;;2.38;1.77;;;23.80;52.00;;;;;;4986777;28;20033;-61
2021/10/19 08:50:43;;;;;;;2.40;1.77;;;23.80;51.60;;;;;;4985289;28;20038;-60
2021/10/19 08:53:08;;;;;;;2.15;1.60;;;23.80;51.50;;;;;;4985696;28;20042;-57
2021/10/19 08:55:34;;;;;;;3.22;1.83;;;23.80;51.40;;;;;;4982801;28;20089;-57
2021/10/19 08:58:03;;;;;;;2.65;1.80;;;23.80;51.20;;;;;;4984553;28;20023;-58
2021/10/19 09:00:30;;;;;;;2.17;1.67;;;23.80;51.20;;;;;;4983754;28;20042;-57
2021/10/19 09:02:56;;;;;;;2.35;1.60;;;23.80;51.10;;;;;;4980481;28;20045;-58
2021/10/19 09:05:24;;;;;;;3.58;1.92;;;23.70;50.90;;;;;;4978185;28;20041;-56
2021/10/19 09:07:55;;;;;;;2.45;1.70;;;23.70;51.00;;;;;;4980410;28;20019;-57
2021/10/19 09:10:20;;;;;;;2.67;1.70;;;23.70;50.90;;;;;;4983776;28;20121;-55
2021/10/19 09:13:01;;;;;;;2.60;1.80;;;23.70;51.00;;;;;;4983244;28;20117;-60
2021/10/19 09:15:30;;;;;;;2.15;1.60;;;23.70;51.00;;;;;;4982367;28;20084;-57
2021/10/19 09:18:01;;;;;;;2.55;1.80;;;23.70;51.00;;;;;;4982701;28;20118;-54
2021/10/19 09:20:27;;;;;;;2.83;1.98;;;23.70;50.90;;;;;;4991965;28;20413;-60
2021/10/19 09:23:00;;;;;;;2.80;2.00;;;23.70;50.90;;;;;;4994944;28;20322;-55
2021/10/19 09:25:28;;;;;;;2.80;1.80;;;23.70;50.80;;;;;;4991686;28;20103;-57
2021/10/19 09:27:56;;;;;;;2.30;1.70;;;23.70;50.90;;;;;;4997967;28;20030;-57
2021/10/19 09:30:33;;;;;;;2.58;1.70;;;23.70;50.90;;;;;;4995770;28;20026;-58
2021/10/19 09:32:59;;;;;;;2.33;1.70;;;23.70;50.90;;;;;;4998571;28;20022;-56
2021/10/19 09:35:25;;;;;;;2.92;2.00;;;23.70;50.90;;;;;;4993444;28;20026;-56
2021/10/19 09:38:04;;;;;;;2.60;1.75;;;23.70;50.80;;;;;;4981713;28;20034;-59
2021/10/19 09:40:51;;;;;;;2.78;1.70;;;23.60;50.80;;;;;;4980528;28;20370;-60
2021/10/19 09:43:23;;;;;;;2.78;1.90;;;23.70;50.90;;;;;;4988403;28;20376;-58
2021/10/19 09:45:52;;;;;;;3.33;2.17;;;23.60;50.80;;;;;;4985258;28;20485;-57
2021/10/19 09:48:26;;;;;;;2.88;1.88;;;23.70;50.80;;;;;;4984422;28;20387;-61
2021/10/19 09:50:53;;;;;;;2.78;1.92;;;23.70;50.80;;;;;;4984028;28;20100;-56
2021/10/19 09:53:20;;;;;;;2.55;1.65;;;23.60;50.80;;;;;;4983354;28;20110;-56
2021/10/19 09:55:50;;;;;;;2.47;1.80;;;23.70;50.90;;;;;;4988350;28;20045;-59
2021/10/19 09:58:16;;;;;;;2.40;1.80;;;23.60;50.80;;;;;;4985784;28;20034;-60
2021/10/19 10:00:43;;;;;;;2.53;1.75;;;23.60;50.80;;;;;;4982457;28;20084;-61
2021/10/19 10:03:11;;;;;;;2.40;1.80;;;23.70;50.90;;;;;;4983714;28;20030;-60
2021/10/19 10:05:37;;;;;;;1.90;1.50;;;23.60;50.90;;;;;;4982502;28;20100;-55
2021/10/19 10:08:08;;;;;;;2.47;1.80;;;23.60;51.00;;;;;;4981366;28;21268;-58
2021/10/19 10:10:34;;;;;;;2.22;1.60;;;23.60;51.00;;;;;;4978023;28;20034;-56
2021/10/19 10:13:04;;;;;;;2.25;1.75;;;23.60;51.00;;;;;;4978478;28;20327;-56
2021/10/19 10:15:33;;;;;;;3.17;1.90;;;23.60;51.00;;;;;;4982558;28;20836;-60
2021/10/19 10:18:01;;;;;;;3.47;1.98;;;23.60;51.00;;;;;;4982118;28;20030;-55
2021/10/19 10:20:42;;;;;;;2.58;1.90;;;23.60;50.90;;;;;;4989141;28;20129;-59
2021/10/19 10:23:17;;;;;;;2.58;1.90;;;23.60;50.90;;;;;;4986979;28;20041;-59
2021/10/19 10:25:44;;;;;;;3.13;2.00;;;23.60;50.90;;;;;;4990740;28;20026;-56
2021/10/19 10:28:16;;;;;;;2.53;1.75;;;23.50;50.90;;;;;;4983389;28;20041;-60
2021/10/19 10:30:45;;;;;;;3.67;2.10;;;23.50;50.90;;;;;;4977135;28;20062;-60
2021/10/19 10:33:11;;;;;;;4.07;2.20;;;23.50;50.90;;;;;;4983916;28;20026;-60
2021/10/19 10:35:43;;;;;;;3.97;2.17;;;23.50;51.00;;;;;;4979137;28;20054;-58
2021/10/19 10:38:09;;;;;;;2.85;1.98;;;23.40;50.90;;;;;;4974021;28;20038;-56
2021/10/19 10:40:44;;;;;;;2.83;1.90;;;23.50;51.00;;;;;;4975567;28;20034;-57
2021/10/19 10:43:25;;;;;;;3.13;2.10;;;23.40;51.00;;;;;;4969054;28;21013;-56
2021/10/19 10:46:02;;;;;;;2.92;2.00;;;23.40;51.00;;;;;;4978966;28;20045;-59
2021/10/19 10:48:28;;;;;;;5.15;1.90;;;23.40;50.90;;;;;;4976629;28;20030;-61
2021/10/19 10:50:54;;;;;;;2.88;1.90;;;23.40;50.90;;;;;;4977325;28;20042;-61
2021/10/19 10:53:20;;;;;;;3.22;2.10;;;23.40;50.90;;;;;;4990250;28;20844;-58
2021/10/19 10:55:52;;;;;;;3.28;2.03;;;23.40;51.00;;;;;;4983603;28;20077;-56
2021/10/19 10:58:25;;;;;;;2.90;1.98;;;23.40;51.00;;;;;;4994276;28;20050;-60
2021/10/19 11:00:52;;;;;;;2.45;1.80;;;23.40;50.90;;;;;;4984823;28;20104;-59
2021/10/19 11:03:19;;;;;;;2.78;1.80;;;23.40;50.90;;;;;;4980068;28;20030;-60
2021/10/19 11:06:02;;;;;;;3.15;2.17;;;23.50;51.00;;;;;;4977619;28;20655;-57
2021/10/19 11:08:30;;;;;;;2.67;1.85;;;23.50;51.00;;;;;;4977762;28;20088;-58
2021/10/19 11:11:12;;;;;;;3.63;1.97;;;23.50;51.00;;;;;;4990130;28;20093;-60
2021/10/19 11:13:57;;;;;;;4.40;2.20;;;23.40;50.90;;;;;;4986756;28;20029;-59
2021/10/19 11:16:42;;;;;;;3.35;1.98;;;23.40;50.90;;;;;;4979702;28;20057;-55
2021/10/19 11:19:16;;;;;;;2.63;2.10;;;23.50;51.00;;;;;;4978593;28;20026;-58
2021/10/19 11:21:42;;;;;;;3.67;2.10;;;23.40;50.90;;;;;;4984232;28;20031;-56
2021/10/19 11:24:09;;;;;;;2.55;2.10;;;23.50;51.00;;;;;;4983974;28;22023;-60
2021/10/19 11:26:35;;;;;;;2.50;1.90;;;23.50;51.00;;;;;;4982991;28;20046;-55
2021/10/19 11:29:01;;;;;;;2.75;1.73;;;23.50;51.50;;;;;;4984476;28;20056;-55
2021/10/19 11:31:32;;;;;;;4.47;2.00;;;23.50;51.00;;;;;;4987318;28;20057;-59
2021/10/19 11:33:59;;;;;;;3.67;2.00;;;23.50;51.10;;;;;;4986478;28;20038;-59
2021/10/19 11:36:25;;;;;;;2.97;1.55;;;23.40;51.10;;;;;;4981267;28;20030;-58
2021/10/19 11:38:53;;;;;;;3.50;1.60;;;23.40;51.10;;;;;;4969804;28;20113;-55
2021/10/19 11:41:21;;;;;;;2.20;1.50;;;23.40;51.30;;;;;;4988219;28;20035;-54
2021/10/19 11:43:55;;;;;;;3.15;1.45;;;23.40;51.50;;;;;;4985225;28;20426;-58
2021/10/19 11:46:24;;;;;;;1.98;1.38;;;23.40;51.70;;;;;;4981185;28;20759;-56
2021/10/19 11:48:52;;;;;;;2.60;1.38;;;23.40;51.80;;;;;;4984467;28;20053;-56
2021/10/19 11:51:20;;;;;;;1.88;1.38;;;23.40;52.00;;;;;;4991262;28;20088;-54
2021/10/19 11:53:47;;;;;;;2.30;1.55;;;23.40;52.00;;;;;;4982501;28;20541;-56
2021/10/19 11:56:14;;;;;;;2.60;1.50;;;23.50;52.20;;;;;;4983680;28;20435;-55
2021/10/19 11:59:08;;;;;;;2.00;1.40;;;23.50;52.30;;;;;;4986941;28;20427;-58
2021/10/19 12:01:42;;;;;;;2.13;1.58;;;23.50;52.30;;;;;;4983896;28;20709;-58
2021/10/19 12:04:14;;;;;;;2.30;1.45;;;23.60;52.40;;;;;;4984598;28;20034;-57
2021/10/19 12:06:45;;;;;;;2.08;1.40;;;23.60;52.40;;;;;;4987920;28;20049;-57
2021/10/19 12:09:13;;;;;;;1.83;1.33;;;23.60;52.60;;;;;;4979037;28;20556;-58
2021/10/19 12:11:39;;;;;;;1.85;1.30;;;23.70;52.60;;;;;;4989769;28;20033;-59
2021/10/19 12:14:08;;;;;;;2.30;1.50;;;23.70;52.60;;;;;;4985315;28;20037;-57
2021/10/19 12:16:34;;;;;;;1.88;1.33;;;23.70;52.70;;;;;;4983302;28;20374;-59
2021/10/19 12:19:01;;;;;;;2.00;1.33;;;23.70;52.70;;;;;;4988535;28;20034;-55
2021/10/19 12:21:29;;;;;;;2.13;1.30;;;23.70;52.80;;;;;;4979962;28;20045;-58
2021/10/19 12:23:58;;;;;;;1.80;1.30;;;23.80;52.90;;;;;;4980834;28;20026;-58
2021/10/19 12:26:26;;;;;;;1.75;1.20;;;23.80;52.90;;;;;;4988961;28;20038;-56
2021/10/19 12:28:54;;;;;;;1.85;1.30;;;23.90;53.00;;;;;;4979552;28;20039;-58
2021/10/19 12:31:21;;;;;;;1.55;1.20;;;23.90;53.00;;;;;;4984105;28;20410;-58
2021/10/19 12:34:00;;;;;;;1.70;1.17;;;23.90;53.00;;;;;;4988271;28;20038;-59
2021/10/19 12:36:29;;;;;;;1.77;1.10;;;23.90;53.10;;;;;;4980136;28;20034;-55
2021/10/19 12:38:59;;;;;;;1.98;1.15;;;23.90;53.10;;;;;;4988997;28;20090;-58
2021/10/19 12:41:26;;;;;;;1.50;1.15;;;23.90;53.10;;;;;;4985121;28;20053;-58
2021/10/19 12:43:54;;;;;;;1.33;1.17;;;24.00;53.20;;;;;;4989011;28;20034;-54
2021/10/19 12:46:24;;;;;;;2.15;1.20;;;24.00;53.10;;;;;;4989113;28;20589;-56